Time;durP1;ratioP1;P1;durP2;ratioP2;P2;SDS_P1;SDS_P2;PMS_P1;PMS_P2;Temp;Humidity;BMP_temperature;BMP_pressure;BME280_temperature;BME280_humidity;BME280_pressure;Samples;Min_cycle;Max_cycle;Signal;HPM_P1;HPM_P2
2022/06/19 00:01:39;;;;;;;7.13;0.98;;;14.40;99.90;;;;;;5109003;28;20062;-83
2022/06/19 00:04:07;;;;;;;2.10;0.88;;;14.30;99.90;;;;;;5093020;28;20043;-84
2022/06/19 00:06:37;;;;;;;9.10;0.85;;;14.30;99.90;;;;;;5110130;28;20071;-83
2022/06/19 00:09:04;;;;;;;7.10;1.10;;;14.30;99.90;;;;;;5109062;28;20039;-83
2022/06/19 00:11:30;;;;;;;4.95;0.75;;;14.30;99.90;;;;;;5111007;28;20047;-84
2022/06/19 00:13:56;;;;;;;6.78;0.80;;;14.40;99.90;;;;;;5108419;28;20051;-83
2022/06/19 00:16:21;;;;;;;7.40;0.90;;;14.20;99.90;;;;;;5109972;28;20036;-83
2022/06/19 00:18:47;;;;;;;7.22;0.88;;;14.20;99.90;;;;;;5092075;28;20371;-83
2022/06/19 00:21:15;;;;;;;4.10;0.68;;;14.20;99.90;;;;;;5092086;28;20536;-83
2022/06/19 00:23:42;;;;;;;7.72;1.17;;;14.20;99.90;;;;;;5109344;28;20079;-83
2022/06/19 00:26:08;;;;;;;9.77;1.08;;;14.20;99.90;;;;;;5108468;28;20062;-83
2022/06/19 00:28:33;;;;;;;10.48;1.67;;;14.20;99.90;;;;;;5110686;28;20043;-84
2022/06/19 00:30:59;;;;;;;4.50;0.85;;;14.20;99.90;;;;;;5109804;28;20043;-83
2022/06/19 00:33:25;;;;;;;8.00;1.00;;;14.30;99.90;;;;;;5110601;28;20044;-82
2022/06/19 00:35:50;;;;;;;4.55;0.93;;;14.20;99.90;;;;;;5109746;28;20069;-82
2022/06/19 00:38:16;;;;;;;8.57;1.20;;;14.10;99.90;;;;;;5110213;28;20180;-83
2022/06/19 00:40:42;;;;;;;7.45;1.10;;;14.10;99.90;;;;;;5091673;28;20444;-83
2022/06/19 00:43:07;;;;;;;4.78;0.95;;;14.20;99.90;;;;;;5108227;28;20043;-83
2022/06/19 00:45:39;;;;;;;12.80;2.58;;;14.20;99.90;;;;;;5092294;28;20396;-83
2022/06/19 00:48:15;;;;;;;11.65;1.30;;;14.20;99.90;;;;;;5090977;28;20087;-83
2022/06/19 00:50:43;;;;;;;11.50;2.58;;;14.30;99.90;;;;;;5107543;28;20040;-82
2022/06/19 00:53:13;;;;;;;6.95;1.05;;;14.30;99.90;;;;;;5108163;28;20396;-83
2022/06/19 00:55:42;;;;;;;9.70;2.15;;;14.40;99.90;;;;;;5108430;28;20036;-83
2022/06/19 00:58:19;;;;;;;5.47;1.50;;;14.40;99.90;;;;;;5109313;28;20040;-83
2022/06/19 01:00:53;;;;;;;6.25;1.10;;;14.50;99.90;;;;;;5107558;28;20105;-82
2022/06/19 01:03:23;;;;;;;13.07;2.47;;;14.50;99.90;;;;;;5108587;28;20055;-83
2022/06/19 01:05:50;;;;;;;7.45;1.52;;;14.50;99.90;;;;;;5107542;28;20542;-83
2022/06/19 01:08:15;;;;;;;7.72;1.42;;;14.60;99.90;;;;;;5108927;28;20552;-82
2022/06/19 01:10:46;;;;;;;11.95;1.65;;;14.60;99.90;;;;;;5108657;28;20043;-83
2022/06/19 01:13:15;;;;;;;10.90;1.45;;;14.60;99.90;;;;;;5109066;28;20082;-83
2022/06/19 01:15:41;;;;;;;10.95;1.27;;;14.60;99.90;;;;;;5110157;28;20047;-83
2022/06/19 01:18:09;;;;;;;11.52;1.30;;;14.70;99.90;;;;;;5107250;28;20390;-83
2022/06/19 01:20:37;;;;;;;8.25;1.33;;;14.70;99.90;;;;;;5108091;28;20059;-83
2022/06/19 01:23:13;;;;;;;5.80;1.23;;;14.70;99.90;;;;;;5107465;28;20070;-83
2022/06/19 01:25:40;;;;;;;12.00;2.03;;;14.80;99.90;;;;;;5107608;28;20047;-83
2022/06/19 01:31:01;;;;;;;7.57;1.27;;;14.80;99.90;;;;;;5106759;28;20565;-84
2022/06/19 01:33:38;;;;;;;7.47;1.20;;;15.00;99.90;;;;;;5107947;28;20043;-83
2022/06/19 01:36:05;;;;;;;14.80;1.75;;;14.80;99.90;;;;;;5109065;28;20396;-84
2022/06/19 01:38:33;;;;;;;13.32;1.60;;;14.80;99.90;;;;;;5107849;28;20054;-83
2022/06/19 01:41:04;;;;;;;10.50;1.55;;;14.90;99.90;;;;;;5107991;28;20119;-83
2022/06/19 01:43:30;;;;;;;11.73;1.30;;;14.80;99.90;;;;;;5106451;28;20038;-83
2022/06/19 01:45:57;;;;;;;12.20;1.75;;;14.80;99.90;;;;;;5107866;28;20048;-83
2022/06/19 01:48:27;;;;;;;13.38;1.50;;;14.70;99.90;;;;;;5089366;28;20127;-83
2022/06/19 01:50:55;;;;;;;9.27;1.52;;;14.70;99.90;;;;;;5108035;28;20043;-83
2022/06/19 01:53:26;;;;;;;13.50;1.50;;;14.60;99.90;;;;;;5107200;28;20039;-83
2022/06/19 01:55:55;;;;;;;10.68;2.03;;;15.40;99.90;;;;;;5106898;28;20055;-83
2022/06/19 01:58:24;;;;;;;14.60;1.65;;;14.50;99.90;;;;;;5091582;28;20051;-83
2022/06/19 02:00:50;;;;;;;16.58;1.73;;;14.40;99.90;;;;;;5106026;28;20050;-83
2022/06/19 02:03:23;;;;;;;13.20;1.90;;;14.40;99.90;;;;;;5107082;28;20480;-83
2022/06/19 02:05:49;;;;;;;17.00;2.00;;;14.50;99.90;;;;;;5106534;28;20633;-83
2022/06/19 02:08:16;;;;;;;13.65;1.52;;;14.30;99.90;;;;;;5090052;28;20048;-83
2022/06/19 02:10:45;;;;;;;12.85;1.98;;;14.80;99.90;;;;;;5107278;28;20043;-83
2022/06/19 02:13:13;;;;;;;12.70;1.50;;;14.40;99.90;;;;;;5090074;28;20488;-83
2022/06/19 02:15:39;;;;;;;12.32;2.63;;;14.20;99.90;;;;;;5107326;28;20083;-83
2022/06/19 02:18:07;;;;;;;8.75;1.40;;;14.20;99.90;;;;;;5089447;28;20043;-84
2022/06/19 02:20:33;;;;;;;12.68;1.63;;;14.20;99.90;;;;;;5107051;28;20048;-83
2022/06/19 02:23:00;;;;;;;12.13;1.90;;;14.20;99.90;;;;;;5089590;28;20050;-83
2022/06/19 02:25:26;;;;;;;13.32;1.70;;;14.20;99.90;;;;;;5106842;28;20048;-83
2022/06/19 02:27:52;;;;;;;15.88;2.25;;;14.20;99.90;;;;;;5090026;28;20487;-83
2022/06/19 02:30:18;;;;;;;14.10;1.48;;;14.20;99.90;;;;;;5106221;28;20050;-83
2022/06/19 02:32:46;;;;;;;16.60;1.80;;;14.10;99.90;;;;;;5106972;28;20040;-83
2022/06/19 02:35:19;;;;;;;13.73;1.73;;;14.10;99.90;;;;;;5088496;28;20040;-83
2022/06/19 02:37:51;;;;;;;10.40;1.73;;;14.10;99.90;;;;;;5106900;28;20061;-83
2022/06/19 02:40:44;;;;;;;9.23;1.45;;;14.00;99.90;;;;;;5106182;28;20052;-83
2022/06/19 02:43:12;;;;;;;;;;;14.10;99.90;;;;;;5106315;28;20051;-83
2022/06/19 02:45:39;;;;;;;12.00;1.40;;;14.10;99.90;;;;;;5106600;28;19923;-83
2022/06/19 02:48:06;;;;;;;12.75;1.92;;;14.10;99.90;;;;;;5071894;28;20043;-83
2022/06/19 02:50:34;;;;;;;7.93;1.70;;;14.40;99.90;;;;;;5107079;28;20132;-83
2022/06/19 02:53:00;;;;;;;13.25;1.40;;;14.10;99.90;;;;;;5105807;28;20031;-84
2022/06/19 02:55:26;;;;;;;11.98;2.17;;;14.10;99.90;;;;;;5073091;28;20043;-83
2022/06/19 02:57:53;;;;;;;12.50;1.63;;;14.20;99.90;;;;;;5106914;28;20054;-83
2022/06/19 03:00:26;;;;;;;11.70;1.35;;;14.60;99.90;;;;;;5105477;28;20287;-83
2022/06/19 03:02:55;;;;;;;7.93;1.55;;;14.20;99.90;;;;;;5107160;28;20480;-83
2022/06/19 03:05:24;;;;;;;10.18;1.40;;;14.50;99.90;;;;;;5105531;28;20087;-83
2022/06/19 03:07:50;;;;;;;12.10;1.50;;;14.20;99.90;;;;;;5089835;28;20039;-83
2022/06/19 03:10:17;;;;;;;10.73;1.58;;;14.20;99.90;;;;;;5105820;28;20096;-83
2022/06/19 03:12:43;;;;;;;8.77;1.40;;;14.20;99.90;;;;;;5106143;28;20104;-83
2022/06/19 03:15:10;;;;;;;10.43;1.67;;;14.20;99.90;;;;;;5076748;28;20059;-83
2022/06/19 03:17:36;;;;;;;9.43;1.45;;;14.20;99.90;;;;;;5109466;28;20040;-83
2022/06/19 03:20:03;;;;;;;16.10;2.55;;;14.20;99.90;;;;;;5110682;28;20120;-83
2022/06/19 03:22:29;;;;;;;9.55;1.30;;;14.20;99.90;;;;;;5109255;28;20052;-83
2022/06/19 03:24:54;;;;;;;8.32;1.88;;;14.10;99.90;;;;;;5110506;28;20039;-83
2022/06/19 03:27:20;;;;;;;8.50;1.13;;;14.10;99.90;;;;;;5092665;28;20340;-83
2022/06/19 03:29:46;;;;;;;8.57;1.63;;;15.40;99.90;;;;;;5110547;28;20044;-82
2022/06/19 03:32:13;;;;;;;7.07;1.35;;;14.10;99.90;;;;;;5118722;28;20073;-83
2022/06/19 03:34:40;;;;;;;9.05;1.77;;;14.10;99.90;;;;;;5100398;28;20043;-83
2022/06/19 03:37:05;;;;;;;10.73;1.48;;;14.10;99.90;;;;;;5117976;28;20043;-83
2022/06/19 03:39:34;;;;;;;8.55;1.42;;;14.10;99.90;;;;;;5099669;28;20542;-83
2022/06/19 03:42:01;;;;;;;10.52;1.70;;;14.10;99.90;;;;;;5118858;28;20479;-83
2022/06/19 03:44:28;;;;;;;10.10;1.25;;;14.10;99.90;;;;;;5110065;28;20048;-83
2022/06/19 03:46:53;;;;;;;9.10;2.08;;;14.10;99.90;;;;;;5110027;28;20083;-83
2022/06/19 03:49:22;;;;;;;15.68;2.45;;;14.10;99.90;;;;;;5109830;28;20506;-82
2022/06/19 03:51:48;;;;;;;19.33;1.95;;;14.00;99.90;;;;;;5092157;28;20051;-82
2022/06/19 03:54:13;;;;;;;12.80;1.55;;;14.10;99.90;;;;;;5111525;28;20051;-84
2022/06/19 03:56:39;;;;;;;17.70;2.47;;;14.60;99.90;;;;;;5093231;28;20043;-84
2022/06/19 03:59:07;;;;;;;8.88;1.13;;;13.80;99.90;;;;;;5111705;28;20043;-85
2022/06/19 04:01:37;;;;;;;11.95;2.22;;;13.70;99.90;;;;;;5110300;28;20490;-84
2022/06/19 04:04:04;;;;;;;11.55;1.75;;;13.80;99.90;;;;;;5111937;28;20419;-84
2022/06/19 04:06:33;;;;;;;15.18;2.53;;;13.50;99.90;;;;;;5093608;28;20035;-84
2022/06/19 04:08:59;;;;;;;11.50;2.15;;;13.50;99.90;;;;;;5110762;28;20054;-84
2022/06/19 04:11:26;;;;;;;15.75;1.60;;;13.50;99.90;;;;;;5109802;28;20152;-84
2022/06/19 04:13:53;;;;;;;15.98;2.22;;;13.50;99.90;;;;;;5074950;28;20047;-85
2022/06/19 04:16:37;;;;;;;12.30;1.83;;;13.50;99.90;;;;;;5110021;28;20464;-85
2022/06/19 04:19:05;;;;;;;12.43;1.42;;;13.50;99.90;;;;;;5108902;28;20062;-85
2022/06/19 04:21:33;;;;;;;14.32;1.88;;;13.40;99.90;;;;;;5109951;28;20309;-85
2022/06/19 04:24:04;;;;;;;7.15;1.30;;;13.40;99.90;;;;;;5094854;28;20459;-85
2022/06/19 04:26:32;;;;;;;11.00;2.03;;;13.40;99.90;;;;;;5108783;28;20181;-86
2022/06/19 04:28:58;;;;;;;19.27;2.40;;;13.30;99.90;;;;;;5092713;28;20036;-85
2022/06/19 04:31:24;;;;;;;14.95;1.70;;;13.70;99.90;;;;;;5108530;28;20184;-85
2022/06/19 04:33:51;;;;;;;13.07;1.98;;;13.80;99.90;;;;;;5109352;28;20044;-85
2022/06/19 04:36:18;;;;;;;14.07;1.88;;;13.00;99.90;;;;;;5091952;28;20288;-85
2022/06/19 04:38:47;;;;;;;14.95;2.15;;;13.00;99.90;;;;;;5108597;28;20084;-86
2022/06/19 04:41:16;;;;;;;11.05;2.10;;;12.90;99.90;;;;;;5092157;28;20039;-85
2022/06/19 04:43:42;;;;;;;17.98;2.45;;;12.90;99.90;;;;;;5090484;28;20051;-85
2022/06/19 04:46:08;;;;;;;14.80;2.17;;;13.70;99.90;;;;;;5109581;28;20043;-85
2022/06/19 04:48:35;;;;;;;16.42;1.70;;;13.80;99.90;;;;;;5108591;28;20040;-85
2022/06/19 04:51:01;;;;;;;9.43;1.50;;;12.90;99.90;;;;;;5109483;28;20050;-85
2022/06/19 04:53:28;;;;;;;13.73;1.60;;;12.80;99.90;;;;;;5091558;28;20122;-85
2022/06/19 04:55:53;;;;;;;13.57;1.67;;;12.90;99.90;;;;;;5108520;28;20043;-85
2022/06/19 04:58:22;;;;;;;15.85;2.75;;;12.80;99.90;;;;;;5058241;28;20035;-85
2022/06/19 05:00:49;;;;;;;10.23;1.65;;;14.00;99.90;;;;;;5107927;28;20454;-85
2022/06/19 05:03:15;;;;;;;11.38;1.13;;;12.80;99.90;;;;;;5075069;28;20427;-85
2022/06/19 05:05:41;;;;;;;5.10;1.23;;;13.30;99.90;;;;;;5106845;28;20096;-85
2022/06/19 05:08:06;;;;;;;6.05;1.52;;;12.70;99.90;;;;;;5108955;28;20043;-85
2022/06/19 05:10:32;;;;;;;4.18;0.90;;;12.50;99.90;;;;;;5091346;28;20590;-85
2022/06/19 05:12:58;;;;;;;17.98;1.52;;;12.40;99.90;;;;;;5091055;28;20109;-86
2022/06/19 05:15:24;;;;;;;6.97;1.77;;;12.60;99.90;;;;;;5108830;28;20039;-85
2022/06/19 05:17:50;;;;;;;6.55;1.40;;;11.50;99.90;;;;;;5090856;28;20424;-85
2022/06/19 05:20:16;;;;;;;12.23;1.50;;;12.80;99.90;;;;;;5108657;28;20051;-86
2022/06/19 05:22:43;;;;;;;11.07;1.35;;;13.20;99.90;;;;;;5090639;28;20043;-85
2022/06/19 05:25:10;;;;;;;11.02;1.67;;;12.30;99.90;;;;;;5091894;28;20457;-85
2022/06/19 05:27:43;;;;;;;9.10;1.23;;;12.40;99.90;;;;;;5107864;28;20046;-85
2022/06/19 05:30:12;;;;;;;13.13;1.70;;;12.70;99.90;;;;;;5108211;28;20377;-85
2022/06/19 05:32:38;;;;;;;9.65;1.13;;;12.40;99.90;;;;;;5108034;28;20061;-85
2022/06/19 05:35:05;;;;;;;8.60;1.42;;;12.50;99.90;;;;;;5106970;28;20040;-85
2022/06/19 05:37:30;;;;;;;11.65;1.00;;;12.40;99.90;;;;;;5108173;28;20339;-85
2022/06/19 05:39:57;;;;;;;9.98;1.90;;;13.60;99.90;;;;;;5106852;28;20751;-85
2022/06/19 05:42:23;;;;;;;14.10;1.67;;;12.50;99.90;;;;;;5109558;28;20507;-84
2022/06/19 05:44:49;;;;;;;6.32;1.25;;;12.50;99.90;;;;;;5073855;28;20096;-85
2022/06/19 05:47:15;;;;;;;14.55;2.20;;;12.80;99.90;;;;;;5090409;28;20035;-85
2022/06/19 05:49:41;;;;;;;9.18;1.23;;;12.90;99.90;;;;;;5091443;28;20093;-84
2022/06/19 05:52:16;;;;;;;6.97;1.33;;;12.70;99.90;;;;;;5072739;28;20051;-85
2022/06/19 05:54:43;;;;;;;7.93;1.60;;;12.50;99.90;;;;;;5090745;28;20087;-85
2022/06/19 05:57:08;;;;;;;14.02;1.70;;;13.50;99.90;;;;;;5106926;28;20591;-85
2022/06/19 05:59:34;;;;;;;10.52;1.52;;;13.00;99.90;;;;;;5107937;28;20239;-85
2022/06/19 06:02:00;;;;;;;10.98;1.08;;;13.60;99.90;;;;;;5107119;28;20043;-85
2022/06/19 06:04:26;;;;;;;13.18;1.30;;;12.50;99.90;;;;;;5089971;28;20119;-85
2022/06/19 06:06:53;;;;;;;11.52;1.50;;;12.50;99.90;;;;;;5091254;28;20047;-85
2022/06/19 06:09:19;;;;;;;13.68;1.40;;;12.90;99.90;;;;;;5105978;28;20676;-84
2022/06/19 06:11:45;;;;;;;12.55;1.48;;;12.50;99.90;;;;;;5107620;28;20526;-85
2022/06/19 06:14:12;;;;;;;13.75;1.52;;;13.10;99.90;;;;;;5106125;28;20524;-85
2022/06/19 06:16:37;;;;;;;10.70;1.15;;;12.60;99.90;;;;;;5073257;28;20127;-85
2022/06/19 06:19:03;;;;;;;7.90;1.02;;;12.60;99.90;;;;;;5089759;28;20127;-85
2022/06/19 06:21:29;;;;;;;4.03;0.70;;;12.50;99.90;;;;;;5106999;28;20104;-85
2022/06/19 06:23:55;;;;;;;10.93;1.00;;;12.60;99.90;;;;;;5107068;28;20555;-85
2022/06/19 06:26:27;;;;;;;13.93;1.67;;;13.10;99.90;;;;;;5072465;28;20042;-85
2022/06/19 06:28:55;;;;;;;14.95;1.50;;;12.70;99.90;;;;;;5107237;28;20052;-85
2022/06/19 06:31:21;;;;;;;8.13;1.45;;;12.70;99.90;;;;;;5106027;28;20118;-84
2022/06/19 06:33:47;;;;;;;6.60;1.35;;;13.30;99.90;;;;;;5090388;28;20201;-85
2022/06/19 06:36:13;;;;;;;7.95;1.08;;;12.80;99.90;;;;;;5089494;28;20035;-86
2022/06/19 06:38:39;;;;;;;4.43;0.80;;;12.90;99.90;;;;;;5106675;28;20435;-86
2022/06/19 06:41:07;;;;;;;12.40;1.52;;;13.40;99.90;;;;;;5107336;28;20046;-85
2022/06/19 06:43:35;;;;;;;8.43;2.40;;;14.40;99.90;;;;;;5106313;28;20062;-85
2022/06/19 06:46:05;;;;;;;8.23;1.20;;;13.30;99.90;;;;;;5091865;28;20054;-86
2022/06/19 06:48:32;;;;;;;7.90;1.20;;;13.30;99.90;;;;;;5097204;28;20051;-86
2022/06/19 06:50:58;;;;;;;12.93;1.92;;;13.40;99.90;;;;;;5097944;28;20211;-85
2022/06/19 06:53:24;;;;;;;11.10;1.40;;;13.40;99.90;;;;;;5113931;28;20047;-86
2022/06/19 06:55:49;;;;;;;10.27;1.55;;;13.50;99.90;;;;;;5098095;28;20050;-85
2022/06/19 06:58:15;;;;;;;7.18;1.13;;;13.60;99.90;;;;;;5079974;28;20043;-86
2022/06/19 07:00:42;;;;;;;10.88;1.13;;;13.70;99.90;;;;;;5080748;28;20039;-85
2022/06/19 07:03:10;;;;;;;7.63;1.10;;;13.70;99.90;;;;;;5080218;28;20055;-86
2022/06/19 07:05:35;;;;;;;9.40;2.28;;;14.50;99.90;;;;;;5112331;28;20081;-85
2022/06/19 07:08:01;;;;;;;6.00;0.88;;;14.10;99.90;;;;;;5080250;28;20103;-85
2022/06/19 07:10:28;;;;;;;7.78;0.80;;;13.80;99.90;;;;;;5095292;28;20042;-86
2022/06/19 07:12:53;;;;;;;7.85;1.20;;;13.80;99.90;;;;;;5114364;28;20043;-85
2022/06/19 07:15:25;;;;;;;8.80;0.93;;;13.90;99.90;;;;;;5080490;28;20050;-86
2022/06/19 07:17:56;;;;;;;12.07;1.23;;;13.80;99.90;;;;;;5097098;28;20058;-86
2022/06/19 07:20:28;;;;;;;7.65;1.38;;;13.80;99.90;;;;;;5080116;28;20071;-85
2022/06/19 07:22:57;;;;;;;9.90;1.30;;;13.80;99.90;;;;;;5095898;28;20043;-85
2022/06/19 07:25:23;;;;;;;9.13;0.90;;;13.90;99.90;;;;;;5113084;28;20047;-85
2022/06/19 07:27:49;;;;;;;9.38;1.45;;;13.90;99.90;;;;;;5111703;28;20040;-84
2022/06/19 07:30:19;;;;;;;7.03;1.17;;;14.00;99.90;;;;;;5113577;28;20303;-86
2022/06/19 07:32:46;;;;;;;9.88;1.52;;;14.10;99.90;;;;;;5111026;28;20082;-85
2022/06/19 07:35:12;;;;;;;8.82;1.45;;;14.20;99.90;;;;;;5113976;28;20104;-86
2022/06/19 07:37:38;;;;;;;13.80;1.85;;;14.60;99.90;;;;;;5095170;28;20480;-86
2022/06/19 07:40:04;;;;;;;8.55;1.15;;;14.60;99.90;;;;;;5112997;28;20397;-86
2022/06/19 07:42:30;;;;;;;7.18;1.00;;;14.30;99.90;;;;;;5112759;28;20043;-85
2022/06/19 07:44:56;;;;;;;9.00;1.02;;;14.50;99.90;;;;;;5114156;28;20052;-86
2022/06/19 07:50:16;;;;;;;9.02;1.33;;;14.40;99.90;;;;;;5113842;28;20052;-85
2022/06/19 07:52:48;;;;;;;5.80;0.98;;;14.40;99.90;;;;;;5082126;28;20072;-85
2022/06/19 07:55:24;;;;;;;9.55;1.40;;;14.40;99.90;;;;;;5113460;28;20055;-85
2022/06/19 07:57:50;;;;;;;5.95;1.15;;;14.40;99.90;;;;;;5115468;28;20039;-86
2022/06/19 08:00:25;;;;;;;12.53;1.20;;;14.40;99.90;;;;;;5101308;28;20043;-84
2022/06/19 08:02:53;;;;;;;4.82;0.77;;;14.50;99.90;;;;;;5101147;28;20055;-85
2022/06/19 08:05:21;;;;;;;6.28;0.70;;;14.50;99.90;;;;;;5101474;28;20134;-85
2022/06/19 08:07:50;;;;;;;8.60;1.42;;;14.60;99.90;;;;;;5117892;28;20348;-87
2022/06/19 08:10:37;;;;;;;8.13;0.98;;;14.50;99.90;;;;;;5101199;28;20418;-84
2022/06/19 08:13:05;;;;;;;4.20;0.98;;;14.40;99.90;;;;;;5117909;28;20051;-84
2022/06/19 08:15:33;;;;;;;7.25;1.23;;;14.40;99.90;;;;;;5101380;28;20514;-84
2022/06/19 08:17:59;;;;;;;6.43;0.90;;;14.30;99.90;;;;;;5118662;28;20051;-85
2022/06/19 08:20:27;;;;;;;8.07;1.13;;;14.30;99.90;;;;;;5099963;28;20055;-85
2022/06/19 08:22:53;;;;;;;8.02;1.55;;;14.30;99.90;;;;;;5118058;28;20040;-84
2022/06/19 08:25:20;;;;;;;6.18;1.70;;;14.30;99.90;;;;;;5100202;28;20101;-85
2022/06/19 08:27:49;;;;;;;7.15;1.30;;;14.40;99.90;;;;;;5116835;28;20081;-85
2022/06/19 08:30:27;;;;;;;12.13;1.45;;;14.50;99.90;;;;;;5118244;28;20123;-85
2022/06/19 08:32:53;;;;;;;9.43;1.00;;;14.50;99.90;;;;;;5116870;28;20090;-83
2022/06/19 08:35:20;;;;;;;4.57;0.82;;;14.60;99.90;;;;;;5101475;28;20051;-85
2022/06/19 08:37:50;;;;;;;5.97;0.85;;;14.60;99.90;;;;;;5101069;28;20046;-86
2022/06/19 08:40:26;;;;;;;6.57;0.63;;;14.60;99.90;;;;;;5120843;28;20256;-85
2022/06/19 08:43:15;;;;;;;5.40;1.13;;;14.70;99.90;;;;;;5118250;28;20055;-85
2022/06/19 08:45:46;;;;;;;2.67;0.70;;;14.70;99.90;;;;;;5118693;28;20112;-85
2022/06/19 08:48:42;;;;;;;7.85;1.15;;;14.80;99.90;;;;;;5118510;28;20054;-85
2022/06/19 08:51:21;;;;;;;6.90;0.93;;;14.80;99.90;;;;;;5116968;28;20059;-84
2022/06/19 08:54:00;;;;;;;5.15;0.70;;;14.90;99.90;;;;;;5115609;28;20048;-84
2022/06/19 08:56:46;;;;;;;8.30;1.05;;;14.90;99.90;;;;;;5112233;28;20054;-85
2022/06/19 08:59:41;;;;;;;4.65;0.70;;;15.00;99.90;;;;;;5094368;28;20035;-84
2022/06/19 09:02:15;;;;;;;11.10;1.48;;;15.00;99.90;;;;;;5114154;28;20097;-84
2022/06/19 09:05:44;;;;;;;4.45;0.70;;;15.00;99.90;;;;;;5115816;28;20370;-85
2022/06/19 09:08:37;;;;;;;8.00;0.80;;;15.00;99.90;;;;;;5017159;28;20427;-85
2022/06/19 09:11:20;;;;;;;4.20;1.00;;;15.00;99.90;;;;;;5017737;28;20135;-84
2022/06/19 09:13:53;;;;;;;3.30;0.50;;;15.00;99.90;;;;;;5086474;28;20358;-86
2022/06/19 09:16:35;;;;;;;3.35;0.50;;;15.00;99.90;;;;;;5119096;28;20089;-85
2022/06/19 09:19:33;;;;;;;6.50;1.10;;;15.00;99.90;;;;;;5118380;28;20066;-86
2022/06/19 09:21:59;;;;;;;3.78;0.60;;;15.10;99.90;;;;;;5117379;28;20488;-87
2022/06/19 09:24:44;;;;;;;5.80;0.50;;;15.10;99.90;;;;;;5096772;28;20127;-86
2022/06/19 09:27:14;;;;;;;4.20;0.50;;;15.90;99.90;;;;;;5072075;28;20474;-86
2022/06/19 09:29:45;;;;;;;6.43;0.65;;;15.20;99.90;;;;;;5092002;28;20039;-84
2022/06/19 09:32:20;;;;;;;2.92;0.63;;;15.30;99.90;;;;;;5091596;28;20088;-84
2022/06/19 09:34:54;;;;;;;6.95;0.70;;;15.40;99.90;;;;;;5091646;28;20040;-85
2022/06/19 09:37:24;;;;;;;3.60;0.38;;;15.50;99.90;;;;;;5107725;28;20123;-84
2022/06/19 09:39:55;;;;;;;5.32;0.80;;;15.60;99.90;;;;;;5108407;28;20094;-84
2022/06/19 09:42:43;;;;;;;5.32;1.00;;;15.60;99.90;;;;;;5090583;28;20127;-84
2022/06/19 09:45:57;;;;;;;1.85;0.40;;;15.60;99.90;;;;;;5107449;28;20404;-84
2022/06/19 09:49:08;;;;;;;4.80;0.73;;;15.60;99.90;;;;;;5086142;28;20451;-84
2022/06/19 09:51:44;;;;;;;2.88;0.40;;;15.60;99.90;;;;;;5086785;28;20048;-84
2022/06/19 09:54:15;;;;;;;3.38;0.45;;;15.60;99.90;;;;;;5107007;28;20043;-84
2022/06/19 09:57:09;;;;;;;4.03;0.40;;;15.80;99.90;;;;;;5107469;28;20032;-84
2022/06/19 09:59:50;;;;;;;7.05;0.65;;;15.80;99.90;;;;;;5090106;28;20055;-85
2022/06/19 10:02:21;;;;;;;3.30;0.50;;;16.00;99.90;;;;;;5106999;28;20396;-83
2022/06/19 10:04:55;;;;;;;2.35;0.70;;;16.10;99.90;;;;;;5090556;28;20040;-84
2022/06/19 10:07:25;;;;;;;4.88;0.50;;;16.20;99.90;;;;;;5106588;28;20416;-84
2022/06/19 10:09:57;;;;;;;5.90;0.80;;;16.40;99.90;;;;;;5090306;28;20492;-84
2022/06/19 10:12:33;;;;;;;;;;;16.40;99.90;;;;;;5107242;28;20082;-84
2022/06/19 10:15:09;;;;;;;3.17;0.30;;;16.40;99.90;;;;;;5107129;28;19923;-85
2022/06/19 10:17:46;;;;;;;2.95;0.25;;;16.40;99.90;;;;;;5107495;28;20484;-85
2022/06/19 10:20:16;;;;;;;5.95;0.60;;;16.50;99.90;;;;;;5106402;28;20128;-84
2022/06/19 10:22:45;;;;;;;3.70;0.52;;;16.50;99.90;;;;;;5106679;28;20092;-85
2022/06/19 10:25:26;;;;;;;3.00;0.40;;;16.60;99.90;;;;;;5106539;28;20141;-85
2022/06/19 10:28:13;;;;;;;3.20;0.57;;;16.60;99.90;;;;;;5090019;28;20045;-85
2022/06/19 10:30:46;;;;;;;3.15;0.57;;;16.70;99.90;;;;;;5090117;28;20055;-85
2022/06/19 10:33:19;;;;;;;2.33;0.50;;;16.80;99.90;;;;;;5106522;28;20040;-85
2022/06/19 10:35:55;;;;;;;4.32;0.68;;;17.00;99.90;;;;;;5106936;28;20059;-84
2022/06/19 10:38:48;;;;;;;3.00;0.38;;;17.10;99.90;;;;;;5106967;28;20048;-84
2022/06/19 10:44:35;;;;;;;1.55;0.30;;;17.50;99.90;;;;;;5106276;28;20043;-85
2022/06/19 10:47:18;;;;;;;2.80;0.43;;;17.50;99.90;;;;;;5089994;28;20039;-85
2022/06/19 10:50:02;;;;;;;1.45;0.30;;;17.50;99.90;;;;;;5089103;28;20051;-84
2022/06/19 10:52:59;;;;;;;2.60;0.30;;;17.50;99.90;;;;;;5106653;28;20047;-85
2022/06/19 10:55:36;;;;;;;1.50;0.25;;;17.50;99.90;;;;;;5071461;28;20617;-85
2022/06/19 10:58:21;;;;;;;2.03;0.38;;;17.40;99.90;;;;;;5105970;28;20031;-84
2022/06/19 11:00:56;;;;;;;3.15;0.35;;;17.50;99.90;;;;;;5089600;28;20054;-84
2022/06/19 11:07:04;;;;;;;1.92;0.40;;;17.50;99.90;;;;;;5105711;28;20056;-84
2022/06/19 11:09:38;;;;;;;2.20;0.43;;;17.40;99.90;;;;;;5106358;28;20043;-85
2022/06/19 11:12:24;;;;;;;0.55;0.22;;;17.30;99.90;;;;;;5105211;28;20496;-85
2022/06/19 11:14:56;;;;;;;1.00;0.28;;;17.20;99.90;;;;;;5105996;28;20568;-84
2022/06/19 11:17:38;;;;;;;2.33;0.98;;;17.10;99.90;;;;;;5106259;28;20036;-85
2022/06/19 11:20:16;;;;;;;2.08;0.30;;;17.00;99.90;;;;;;5105555;28;20231;-85
2022/06/19 11:22:46;;;;;;;4.03;0.75;;;16.90;99.90;;;;;;5106210;28;20335;-83
2022/06/19 11:25:21;;;;;;;1.33;0.35;;;16.70;99.90;;;;;;5105611;28;20404;-84
2022/06/19 11:27:56;;;;;;;2.05;0.43;;;16.60;99.90;;;;;;5105507;28;20050;-84
2022/06/19 11:30:42;;;;;;;4.63;0.40;;;16.50;99.90;;;;;;5106145;28;20043;-84
2022/06/19 11:33:13;;;;;;;1.95;0.40;;;16.40;99.90;;;;;;5104891;28;20087;-84
2022/06/19 11:35:48;;;;;;;2.85;0.30;;;16.30;99.90;;;;;;5091359;28;20240;-84
2022/06/19 11:38:16;;;;;;;2.53;0.77;;;16.20;99.90;;;;;;5093105;28;20044;-83
2022/06/19 11:40:48;;;;;;;3.90;0.70;;;16.20;99.90;;;;;;5109462;28;20051;-84
2022/06/19 11:43:30;;;;;;;4.65;0.98;;;16.10;99.90;;;;;;5110046;28;20070;-84
2022/06/19 11:46:01;;;;;;;4.25;0.77;;;16.00;99.90;;;;;;5109238;28;20051;-84
2022/06/19 11:48:27;;;;;;;2.83;0.43;;;15.80;99.90;;;;;;5110238;28;20444;-83
2022/06/19 11:50:57;;;;;;;5.90;0.82;;;15.90;99.90;;;;;;5109549;28;20135;-84
2022/06/19 11:53:30;;;;;;;3.70;0.70;;;15.80;99.90;;;;;;5110961;28;20052;-83
2022/06/19 11:56:19;;;;;;;5.70;0.80;;;15.80;99.90;;;;;;5109843;28;20052;-84
2022/06/19 11:58:56;;;;;;;5.30;0.73;;;15.70;99.90;;;;;;5108733;28;20059;-84
2022/06/19 12:01:33;;;;;;;5.20;1.13;;;15.80;99.90;;;;;;5111340;27;20040;-84
2022/06/19 12:04:00;;;;;;;5.25;0.93;;;15.80;99.90;;;;;;5109741;28;20412;-82
2022/06/19 12:06:50;;;;;;;3.90;0.63;;;15.90;99.90;;;;;;5110876;28;20097;-84
2022/06/19 12:09:37;;;;;;;5.40;0.73;;;16.00;99.90;;;;;;5109666;28;20043;-83
2022/06/19 12:12:11;;;;;;;2.85;0.50;;;15.90;99.90;;;;;;5110186;27;20048;-83
2022/06/19 12:14:53;;;;;;;4.03;0.60;;;15.90;99.90;;;;;;5109195;28;20051;-85
2022/06/19 12:17:25;;;;;;;4.78;0.65;;;15.80;99.90;;;;;;5110806;28;20052;-85
2022/06/19 12:20:00;;;;;;;18.98;3.50;;;15.80;99.90;;;;;;5111569;28;20048;-84
2022/06/19 12:22:41;;;;;;;10.43;1.10;;;15.80;99.90;;;;;;5115759;28;20051;-84
2022/06/19 12:25:25;;;;;;;51.00;5.10;;;15.80;99.90;;;;;;5099439;28;20078;-85
2022/06/19 12:28:02;;;;;;;10.32;1.90;;;15.90;99.90;;;;;;5115050;28;20047;-83
2022/06/19 12:30:46;;;;;;;10.35;1.02;;;16.00;99.90;;;;;;5100721;28;20510;-85
2022/06/19 12:33:29;;;;;;;9.55;1.40;;;16.30;99.90;;;;;;5099015;28;20052;-83
2022/06/19 12:35:55;;;;;;;5.82;0.80;;;16.60;99.90;;;;;;5116053;28;20044;-85
2022/06/19 12:38:23;;;;;;;8.43;1.30;;;16.90;99.90;;;;;;5117620;28;20084;-83
2022/06/19 12:41:42;;;;;;;4.80;0.73;;;17.10;99.90;;;;;;5116837;27;20048;-83
2022/06/19 12:44:36;;;;;;;4.82;0.80;;;17.40;99.90;;;;;;5016435;28;20061;-83
2022/06/19 12:47:09;;;;;;;5.47;0.93;;;17.70;99.90;;;;;;5116742;27;20043;-82
2022/06/19 12:49:58;;;;;;;3.58;0.43;;;18.00;99.90;;;;;;5114215;28;20106;-82
2022/06/19 12:52:50;;;;;;;4.28;0.65;;;18.40;99.90;;;;;;5098332;28;20047;-82
2022/06/19 12:55:48;;;;;;;2.22;0.70;;;18.70;99.90;;;;;;5116954;28;20044;-82
2022/06/19 12:58:47;;;;;;;2.03;0.40;;;18.90;99.90;;;;;;5114518;28;20069;-82
2022/06/19 13:01:35;;;;;;;4.90;0.45;;;19.00;99.90;;;;;;5115383;28;20054;-82
2022/06/19 13:04:26;;;;;;;2.67;0.60;;;18.90;99.90;;;;;;5115025;28;20509;-82
2022/06/19 13:06:52;;;;;;;6.03;0.77;;;18.90;99.90;;;;;;5113864;28;20055;-82
2022/06/19 13:09:53;;;;;;;8.75;1.05;;;18.80;99.90;;;;;;5115033;28;20560;-82
2022/06/19 13:12:52;;;;;;;3.47;0.77;;;18.90;99.90;;;;;;5114382;28;20054;-83
2022/06/19 13:15:51;;;;;;;5.15;0.57;;;19.00;99.90;;;;;;5113297;28;20054;-84
2022/06/19 13:18:26;;;;;;;4.55;0.55;;;18.90;99.90;;;;;;5093452;28;20181;-83
2022/06/19 13:21:01;;;;;;;5.90;0.93;;;18.90;99.90;;;;;;5112275;28;20092;-83